createdAt,value
2023-03-22T00:02:48.829Z,17.65
2023-03-22T00:05:57.192Z,18.23
2023-03-22T00:08:59.201Z,17.92
2023-03-22T00:12:01.001Z,18.92
2023-03-22T00:15:02.858Z,16.40
2023-03-22T00:18:05.852Z,20.90
2023-03-22T00:21:12.443Z,15.25
2023-03-22T00:24:14.282Z,17.58
2023-03-22T00:27:15.955Z,18.05
2023-03-22T00:30:18.027Z,17.45
2023-03-22T00:33:19.894Z,18.52
2023-03-22T00:36:21.727Z,19.90
2023-03-22T00:39:27.083Z,19.75
2023-03-22T00:42:28.832Z,21.00
2023-03-22T00:45:30.676Z,18.85
2023-03-22T00:48:32.864Z,19.63
2023-03-22T00:51:34.533Z,16.00
2023-03-22T00:54:36.326Z,18.08
2023-03-22T00:57:38.232Z,16.58
2023-03-22T01:00:40.282Z,19.48
2023-03-22T01:03:43.752Z,18.17
2023-03-22T01:06:49.014Z,18.38
2023-03-22T01:09:51.969Z,19.60
2023-03-22T01:12:54.154Z,16.98
2023-03-22T01:15:56.328Z,18.67
2023-03-22T01:18:58.392Z,20.92
2023-03-22T01:22:00.671Z,20.40
2023-03-22T01:25:03.167Z,24.05
2023-03-22T01:28:06.900Z,24.80
2023-03-22T01:31:08.888Z,24.40
2023-03-22T01:34:10.738Z,22.77
2023-03-22T01:37:13.080Z,20.92
2023-03-22T01:40:19.547Z,21.73
2023-03-22T01:43:21.862Z,18.52
2023-03-22T01:46:23.604Z,18.08
2023-03-22T01:49:33.758Z,17.85
2023-03-22T01:52:37.756Z,21.65
2023-03-22T01:55:47.308Z,19.27
2023-03-22T01:58:56.700Z,17.77
2023-03-22T02:02:07.770Z,17.75
2023-03-22T02:05:12.375Z,19.27
2023-03-22T02:08:15.053Z,19.67
2023-03-22T02:11:42.880Z,18.80
2023-03-22T02:15:10.494Z,19.10
2023-03-22T02:18:51.897Z,17.70
2023-03-22T02:21:56.330Z,17.77
2023-03-22T02:25:31.227Z,18.40
2023-03-22T02:28:46.244Z,22.85
2023-03-22T02:32:06.741Z,19.45
2023-03-22T02:35:27.131Z,19.38
2023-03-22T02:38:52.581Z,17.88
2023-03-22T02:42:12.574Z,18.15
2023-03-22T02:45:21.702Z,23.42
2023-03-22T02:48:39.523Z,18.38
2023-03-22T02:51:48.022Z,18.13
2023-03-22T02:58:15.704Z,15.98
2023-03-22T03:04:35.607Z,17.40
2023-03-22T03:07:38.691Z,20.63
2023-03-22T03:10:42.546Z,17.95
2023-03-22T03:13:47.855Z,17.67
2023-03-22T03:17:06.422Z,18.38
2023-03-22T03:21:03.330Z,17.10
2023-03-22T03:24:30.568Z,20.48
2023-03-22T03:27:49.862Z,17.52
2023-03-22T03:31:06.662Z,17.33
2023-03-22T03:34:22.215Z,15.95
2023-03-22T03:37:31.693Z,17.27
2023-03-22T03:40:37.757Z,17.85
2023-03-22T03:43:42.097Z,18.45
2023-03-22T03:46:46.072Z,16.05
2023-03-22T03:49:47.930Z,15.60
2023-03-22T03:52:49.834Z,13.60
2023-03-22T03:55:51.607Z,16.52
2023-03-22T03:58:53.392Z,13.45
2023-03-22T04:01:55.676Z,12.82
2023-03-22T04:05:04.083Z,13.85
2023-03-22T04:08:05.825Z,12.63
2023-03-22T04:11:08.095Z,11.02
2023-03-22T04:14:10.431Z,16.13
2023-03-22T04:17:13.024Z,13.73
2023-03-22T04:20:15.248Z,12.57
2023-03-22T04:23:17.397Z,11.80
2023-03-22T04:26:21.841Z,12.23
2023-03-22T04:29:48.237Z,11.02
2023-03-22T04:33:07.945Z,10.10
2023-03-22T04:36:48.080Z,12.27
2023-03-22T04:40:01.345Z,11.48
2023-03-22T04:43:26.050Z,11.07
2023-03-22T04:46:36.874Z,14.13
2023-03-22T04:49:41.867Z,12.95
2023-03-22T04:52:44.174Z,14.07
2023-03-22T04:55:46.199Z,12.65
2023-03-22T04:58:48.205Z,14.50
2023-03-22T05:01:51.659Z,18.77
2023-03-22T05:04:56.956Z,15.55
2023-03-22T05:08:14.419Z,15.48
2023-03-22T05:11:20.271Z,15.68
2023-03-22T05:14:34.004Z,17.70
2023-03-22T05:17:36.070Z,17.77
2023-03-22T05:20:38.579Z,22.30
2023-03-22T05:23:58.195Z,17.17
2023-03-22T05:27:03.990Z,25.48
2023-03-22T05:30:08.044Z,21.88
2023-03-22T05:33:22.016Z,18.05
2023-03-22T05:36:29.687Z,21.85
2023-03-22T05:39:54.580Z,18.23
2023-03-22T05:43:01.668Z,27.17
2023-03-22T05:46:06.553Z,24.73
2023-03-22T05:49:19.819Z,24.90
2023-03-22T05:52:21.781Z,24.48
2023-03-22T05:55:44.892Z,17.83
2023-03-22T05:58:47.265Z,21.50
2023-03-22T06:01:52.136Z,26.20
2023-03-22T06:04:57.808Z,23.85
2023-03-22T06:08:00.267Z,22.80
2023-03-22T06:11:02.169Z,21.40
2023-03-22T06:14:04.690Z,24.52
2023-03-22T06:17:21.348Z,15.10
2023-03-22T06:20:25.848Z,19.08
2023-03-22T06:23:34.234Z,14.15
2023-03-22T06:26:36.150Z,15.95
2023-03-22T06:29:38.134Z,14.60
2023-03-22T06:32:41.556Z,15.02
2023-03-22T06:35:44.429Z,14.35
2023-03-22T06:38:50.873Z,15.00
2023-03-22T06:41:52.600Z,11.77
2023-03-22T06:44:54.267Z,15.52
2023-03-22T06:48:06.116Z,10.98
2023-03-22T06:51:32.173Z,17.42
2023-03-22T06:54:34.265Z,10.82
2023-03-22T06:57:36.119Z,12.75
2023-03-22T07:00:39.012Z,15.23
2023-03-22T07:03:42.418Z,9.90
2023-03-22T07:06:48.439Z,7.75
2023-03-22T07:09:51.268Z,8.95
2023-03-22T07:12:53.163Z,9.27
2023-03-22T07:16:00.175Z,9.25
2023-03-22T07:19:10.146Z,10.40
2023-03-22T07:22:12.081Z,9.32
2023-03-22T07:25:13.893Z,8.13
2023-03-22T07:28:16.479Z,7.75
2023-03-22T07:31:18.760Z,11.63
2023-03-22T07:34:27.210Z,10.10
2023-03-22T07:37:49.262Z,8.77
2023-03-22T07:44:17.438Z,12.77
2023-03-22T07:47:39.866Z,10.68
2023-03-22T07:51:03.047Z,6.18
2023-03-22T07:54:07.597Z,8.48
2023-03-22T07:57:09.916Z,7.10
2023-03-22T08:00:18.595Z,13.75
2023-03-22T08:03:30.458Z,12.95
2023-03-22T08:06:42.722Z,9.98
2023-03-22T08:09:49.656Z,13.65
2023-03-22T08:12:51.392Z,10.43
2023-03-22T08:15:59.130Z,12.38
2023-03-22T08:19:01.918Z,15.73
2023-03-22T08:22:56.837Z,16.23
2023-03-22T08:26:02.135Z,16.10
2023-03-22T08:29:04.971Z,15.60
2023-03-22T08:32:10.669Z,14.15
2023-03-22T08:35:12.985Z,16.63
2023-03-22T08:38:16.868Z,15.65
2023-03-22T08:41:23.674Z,13.82
2023-03-22T08:44:26.945Z,13.77
2023-03-22T08:47:30.349Z,11.35
2023-03-22T08:50:37.670Z,11.75
2023-03-22T08:53:51.447Z,16.17
2023-03-22T08:57:15.481Z,11.43
2023-03-22T09:00:48.714Z,11.60
2023-03-22T09:04:02.343Z,13.38
2023-03-22T09:07:05.303Z,17.63
2023-03-22T09:10:09.367Z,11.45
2023-03-22T09:13:16.858Z,10.60
2023-03-22T09:16:26.131Z,14.13
2023-03-22T09:19:30.494Z,12.38
2023-03-22T09:22:33.037Z,11.38
2023-03-22T09:25:37.278Z,9.30
2023-03-22T09:28:40.137Z,11.02
2023-03-22T09:31:44.660Z,9.23
2023-03-22T09:34:57.632Z,8.20
2023-03-22T09:38:06.128Z,10.00
2023-03-22T09:41:16.821Z,15.25
2023-03-22T09:44:31.944Z,10.77
2023-03-22T09:47:44.876Z,10.40
2023-03-22T09:50:51.988Z,9.93
2023-03-22T09:53:54.196Z,10.07
2023-03-22T09:57:00.084Z,8.90
2023-03-22T10:00:46.790Z,10.50
2023-03-22T10:04:10.068Z,9.18
2023-03-22T10:07:20.416Z,10.93
2023-03-22T10:10:24.271Z,7.95
2023-03-22T10:13:48.951Z,7.47
2023-03-22T10:16:56.542Z,7.55
2023-03-22T10:20:09.091Z,4.30
2023-03-22T10:23:17.236Z,4.55
2023-03-22T10:26:20.067Z,3.97
2023-03-22T10:29:30.658Z,5.40
2023-03-22T10:32:57.837Z,6.03
2023-03-22T10:36:02.941Z,5.18
2023-03-22T10:39:17.229Z,3.33
2023-03-22T10:42:26.942Z,4.43
2023-03-22T10:45:34.489Z,5.57
2023-03-22T10:48:42.089Z,8.00
2023-03-22T10:51:49.808Z,3.45
2023-03-22T10:54:52.083Z,4.80
2023-03-22T10:58:18.359Z,3.97
2023-03-22T11:01:33.507Z,3.42
2023-03-22T11:04:38.038Z,6.22
2023-03-22T11:07:44.590Z,4.57
2023-03-22T11:10:52.063Z,4.97
2023-03-22T11:14:00.675Z,7.22
2023-03-22T11:17:06.159Z,3.78
2023-03-22T11:20:16.172Z,14.15
2023-03-22T11:23:20.781Z,3.75
2023-03-22T11:26:35.690Z,8.73
2023-03-22T11:29:48.458Z,4.00
2023-03-22T11:33:03.877Z,3.33
2023-03-22T11:36:17.171Z,4.15
2023-03-22T11:39:21.891Z,3.80
2023-03-22T11:42:24.146Z,17.55
2023-03-22T11:45:36.144Z,4.45
2023-03-22T11:48:42.255Z,3.42
2023-03-22T11:51:46.205Z,3.95
2023-03-22T11:54:49.869Z,5.45
2023-03-22T11:57:55.975Z,3.50
2023-03-22T12:01:02.836Z,10.50
2023-03-22T12:04:10.418Z,5.03
2023-03-22T12:07:17.179Z,7.95
2023-03-22T12:10:41.053Z,8.52
2023-03-22T12:14:00.579Z,4.10
2023-03-22T12:17:11.477Z,8.65
2023-03-22T12:20:33.096Z,3.30
2023-03-22T12:23:35.357Z,4.93
2023-03-22T12:26:37.768Z,5.05
2023-03-22T12:29:46.805Z,4.85
2023-03-22T12:33:21.326Z,3.75
2023-03-22T12:36:33.025Z,3.78
2023-03-22T12:39:46.757Z,3.28
2023-03-22T12:43:00.240Z,5.45
2023-03-22T12:46:05.857Z,6.07
2023-03-22T12:49:20.710Z,3.75
2023-03-22T12:52:44.676Z,3.58
2023-03-22T12:55:50.000Z,4.88
2023-03-22T12:59:03.561Z,3.17
2023-03-22T13:02:19.125Z,4.03
2023-03-22T13:05:22.058Z,4.57
2023-03-22T13:08:24.857Z,4.93
2023-03-22T13:11:27.780Z,16.52
2023-03-22T13:15:28.256Z,5.40
2023-03-22T13:18:38.152Z,3.20
2023-03-22T13:21:41.403Z,4.95
2023-03-22T13:25:13.158Z,3.83
2023-03-22T13:28:26.429Z,6.90
2023-03-22T13:31:42.755Z,5.90
2023-03-22T13:34:48.618Z,3.53
2023-03-22T13:37:51.925Z,3.35
2023-03-22T13:41:04.059Z,5.80
2023-03-22T13:44:27.555Z,6.70
2023-03-22T13:47:31.713Z,2.85
2023-03-22T13:50:35.308Z,6.30
2023-03-22T13:53:41.410Z,3.15
2023-03-22T13:56:57.777Z,4.03
2023-03-22T14:00:21.007Z,6.10
2023-03-22T14:03:30.617Z,9.18
2023-03-22T14:06:39.559Z,3.45
2023-03-22T14:10:00.560Z,6.75
2023-03-22T14:13:17.354Z,5.60
2023-03-22T14:16:41.820Z,3.85
2023-03-22T14:19:44.279Z,5.40
